Create Custom Reports and Graphics: Custom Report

Latest Observations

Map

15 Minute Data

Lake County North

13 Stations

15 Minute Data | America/Los_Angeles
as of 5/24/19 10:20 PM PDT
Station Date Time Temp (°F) Dew Pt (°F) RH (%) Wind Spd (mph) Wind Dir (°) Wind Gust (mph) Latest Rain (In) Daily Rain (In) Daily Min Temp (°F) Daily Max Temp (°F)
Upper Lake (UPL) 5/24/19 2200 60.6   4.9 54.9   0.7 82 3.8 WNW | 293 12.4 0.00 0.00 46.8   2.3 78.0   1.0
Scotts Valley (SVL) 5/24/19 2215 55.2   0.5 49.8   3.1 82 0.6 W | 276 4.7 0.00 0.00 42.4   0.7 78.0   2.6
High Valley Ridgeline (Brassfield) 5/24/19 2215 56.8   4.0 51.7   1.6 83 8.5 W | 260 13.7 0.00 0.17 52.0   2.0 72.6   0.4
Ridgeline Top (Brassfield) 5/24/19 2215 55.8   2.7 - - - - - - - 52.2   1.5 74.4   2.5
Ridgeline Low (Brassfield) 5/24/19 2215 58.4   2.9 - - - - - - - 49.8   1.2 73.0   1.2
High Valley Winery 5/24/19 2215 59.9   1.1 52.3   1.2 76 7.4 SSW | 203 13.0 0.00 0.08 44.0   2.9 74.5   0.8
Kelseyville (KEL) 5/24/19 2215 57.6   1.2 51.3   0.2 77 3.4 S | 170 5.7 0.00 0.00 45.7   0.1 78.1   0.9
Kelseyville Remote 5/24/19 2215 57.4   1.8 49.0   0.1 73 - - - - - 45.4   0.5 77.1   0.8
Kelseyville South (SML) 5/24/19 2215 57.2   0.5 52.1   0.4 83 2.4 S | 180 4.4 0.00 0.00 47.5   2.1 75.1   1.8
Bell Hill West (BHR) 5/24/19 2215 58.5   0.4 50.7   1.0 75 2.0 SSW | 196 6.1 0.00 0.00 47.2   1.1 75.3   0.2
Wight Way 5/24/19 2215 55.6   3.2 51.2   0.6 85 0.6 E | 97 2.0 0.00 0.00 43.2   0.1 78.1   0.4
Red Hills (Beckstoffer) 5/24/19 2215 56.0   2.1 50.5   0.2 82 - - - - - 41.8   2.7 77.6   1.3
Red Hills East (2200ft) 5/24/19 2215 60.1   0.1 50.1   0.9 69 3.6 WNW | 296 8.6 0.00 0.00 45.9   2.7 76.0   4.1
Max     60.6 54.9 85 8.5 - 13.7 0.00 0.17 52.2 78.1
Avg     57.6 51.2 79 3.6 - 7.9 0.00 - - -
Min     55.2 49.0 69 0.6 - 2.0 0.00 0.00 41.8 72.6

Lake County South

8 Stations

15 Minute Data | America/Los_Angeles
as of 5/24/19 10:20 PM PDT
Station Date Time Temp (°F) Dew Pt (°F) RH (%) Wind Spd (mph) Wind Dir (°) Wind Gust (mph) Latest Rain (In) Daily Rain (In) Daily Min Temp (°F) Daily Max Temp (°F)
Bella Vista-Middletown West 5/24/19 2215 57.3   4.4 52.2   5.8 83 - - - - - 44.4   2.6 75.4   1.5
Middletown-South 5/24/19 2215 56.6   0.4 52.9   2.5 87 1.6 S | 170 5.0 0.00 0.00 44.4   1.9 78.5   0.5
Lower Bohn 5/24/19 2215 55.6   0.9 54.6   2.4 96 1.5 NNW | 329 2.5 0.00 0.01 44.4   6.4 76.0   2.2
Upper Bohn North 5/24/19 2215 59.7   0.3 54.4   2.9 83 1.6 SE | 144 3.7 0.00 0.01 48.4   6.2 76.7   5.1
Upper Bohn South 5/24/19 2215 58.2   1.3 45.8   7.9 63 0.9 N | 359 2.4 0.00 0.01 47.8   11.1 76.4   2.4
Morgan Valley (HSM) 5/24/19 2215 59.0   1.1 47.8   0.9 66 8.0 NW | 317 12.7 0.01 0.22 48.4   8.2 68.7   0.5
Mine Pit North 5/24/19 2200 58.9   0.3 53.7   0.1 83 4.6 SW | 236 6.6 - - 49.1   8.5 75.4   0.9
Mine Pit South 5/24/19 2200 60.8   1.6 53.1   0.2 76 1.3 WSW | 241 5.0 0.00 0.00 48.6   9.7 75.2   1.0
Max     60.8 54.6 96 8.0 - 12.7 0.01 0.22 49.1 78.5
Avg     58.3 51.8 80 2.8 - 5.4 0.00 - - -
Min     55.6 45.8 63 0.9 - 2.4 0.00 0.00 44.4 68.7